createdAt,value
2018-04-10T00:00:01.394Z,0.00
2018-04-10T00:01:01.505Z,0.00
2018-04-10T00:02:01.605Z,0.00
2018-04-10T00:03:01.712Z,0.00
2018-04-10T00:04:01.799Z,0.00
2018-04-10T00:05:01.892Z,0.00
2018-04-10T00:06:01.969Z,0.00
2018-04-10T00:07:02.065Z,0.00
2018-04-10T00:08:02.164Z,0.00
2018-04-10T00:09:02.254Z,0.00
2018-04-10T00:10:02.345Z,0.00
2018-04-10T00:11:02.454Z,0.00
2018-04-10T00:12:02.550Z,0.00
2018-04-10T00:13:02.646Z,0.00
2018-04-10T00:14:02.756Z,0.00
2018-04-10T00:15:02.836Z,0.00
2018-04-10T00:16:02.912Z,0.00
2018-04-10T00:17:03.021Z,0.00
2018-04-10T00:18:03.100Z,0.00
2018-04-10T00:19:03.213Z,0.00
2018-04-10T00:20:03.314Z,0.00
2018-04-10T00:21:03.414Z,0.00
2018-04-10T00:22:03.536Z,0.00
2018-04-10T00:23:03.637Z,0.00
2018-04-10T00:24:03.726Z,0.00
2018-04-10T00:25:03.816Z,0.00
2018-04-10T00:26:03.923Z,0.00
2018-04-10T00:27:04.001Z,0.00
2018-04-10T00:28:04.087Z,0.00
2018-04-10T00:29:04.182Z,0.00
2018-04-10T00:30:04.276Z,0.00
2018-04-10T00:31:04.383Z,0.00
2018-04-10T00:32:04.470Z,0.00
2018-04-10T00:33:04.563Z,0.00
2018-04-10T00:34:04.662Z,0.00
2018-04-10T00:35:04.754Z,0.00
2018-04-10T00:36:04.856Z,0.00
2018-04-10T00:37:04.941Z,0.00
2018-04-10T00:38:05.031Z,0.00
2018-04-10T00:39:05.115Z,0.00
2018-04-10T00:40:05.205Z,0.00
2018-04-10T00:41:05.297Z,0.00
2018-04-10T00:42:05.394Z,0.00
2018-04-10T00:43:05.489Z,0.00
2018-04-10T00:44:05.580Z,0.00
2018-04-10T00:45:05.692Z,0.00
2018-04-10T00:46:05.787Z,0.00
2018-04-10T00:47:05.881Z,0.00
2018-04-10T00:48:05.977Z,0.00
2018-04-10T00:49:06.072Z,0.00
2018-04-10T00:50:06.169Z,0.00
2018-04-10T00:51:06.260Z,0.00
2018-04-10T00:52:06.357Z,0.00
2018-04-10T00:53:06.448Z,0.00
2018-04-10T00:54:06.543Z,0.00
2018-04-10T00:55:06.641Z,0.00
2018-04-10T00:56:06.733Z,0.00
2018-04-10T00:57:06.822Z,0.00
2018-04-10T00:58:06.921Z,0.00
2018-04-10T00:59:07.015Z,0.00
2018-04-10T01:00:07.112Z,0.00
2018-04-10T01:01:07.204Z,0.00
2018-04-10T01:02:07.301Z,0.00
2018-04-10T01:03:07.391Z,0.00
2018-04-10T01:04:07.489Z,0.00
2018-04-10T01:05:07.584Z,0.00
2018-04-10T01:06:07.680Z,0.00
2018-04-10T01:07:07.794Z,0.00
2018-04-10T01:08:07.869Z,0.00
2018-04-10T01:09:07.963Z,0.00
2018-04-10T01:10:08.059Z,0.00
2018-04-10T01:11:08.156Z,0.00
2018-04-10T01:12:08.253Z,0.00
2018-04-10T01:13:08.346Z,0.00
2018-04-10T01:14:08.440Z,0.00
2018-04-10T01:15:08.534Z,0.00
2018-04-10T01:16:08.628Z,0.00
2018-04-10T01:17:08.725Z,0.00
2018-04-10T01:18:08.836Z,0.00
2018-04-10T01:19:08.931Z,0.00
2018-04-10T01:20:09.022Z,0.00
2018-04-10T01:21:09.118Z,0.00
2018-04-10T01:22:09.214Z,0.00
2018-04-10T01:23:09.311Z,0.00
2018-04-10T01:24:09.406Z,0.00
2018-04-10T01:25:09.506Z,0.00
2018-04-10T01:26:09.599Z,0.00
2018-04-10T01:27:09.692Z,0.00
2018-04-10T01:28:09.784Z,0.00
2018-04-10T01:29:09.880Z,0.00
2018-04-10T01:30:09.974Z,0.00
2018-04-10T01:31:10.066Z,0.00
2018-04-10T01:32:10.160Z,0.00
2018-04-10T01:33:10.254Z,0.00
2018-04-10T01:34:10.345Z,0.00
2018-04-10T01:35:10.443Z,0.00
2018-04-10T01:36:10.541Z,0.00
2018-04-10T01:37:10.635Z,0.00
2018-04-10T01:38:10.732Z,0.00
2018-04-10T01:39:10.825Z,0.00
2018-04-10T01:40:10.918Z,0.00
2018-04-10T01:41:11.009Z,0.00
2018-04-10T01:42:11.105Z,0.00
2018-04-10T01:43:11.199Z,0.00
2018-04-10T01:44:11.293Z,0.00
2018-04-10T01:45:11.435Z,0.00
2018-04-10T01:46:11.488Z,0.00
2018-04-10T01:47:11.583Z,0.00
2018-04-10T01:48:11.676Z,0.00
2018-04-10T01:49:11.771Z,0.00
2018-04-10T01:50:11.870Z,0.00
2018-04-10T01:51:11.964Z,0.00
2018-04-10T01:52:12.062Z,0.00
2018-04-10T01:53:12.156Z,0.00
2018-04-10T01:54:12.249Z,0.00
2018-04-10T01:55:12.346Z,0.00
2018-04-10T01:56:12.438Z,0.00
2018-04-10T01:57:12.532Z,0.00
2018-04-10T01:58:12.626Z,0.00
2018-04-10T01:59:12.719Z,0.00
2018-04-10T02:00:12.815Z,0.00
2018-04-10T02:01:12.909Z,0.00
2018-04-10T02:02:13.004Z,0.00
2018-04-10T02:03:13.101Z,0.00
2018-04-10T02:04:13.201Z,0.00
2018-04-10T02:05:13.292Z,0.00
2018-04-10T02:06:13.386Z,0.00
2018-04-10T02:07:13.481Z,0.00
2018-04-10T02:08:13.600Z,0.00
2018-04-10T02:09:13.667Z,0.00
2018-04-10T02:10:13.762Z,0.00
2018-04-10T02:11:13.853Z,4.00
2018-04-10T02:12:13.947Z,0.00
2018-04-10T02:13:14.046Z,0.00
2018-04-10T02:14:14.139Z,0.00
2018-04-10T02:15:14.239Z,0.00
2018-04-10T02:16:14.330Z,0.00
2018-04-10T02:17:14.428Z,0.00
2018-04-10T02:18:14.525Z,0.00
2018-04-10T02:19:14.620Z,0.00
2018-04-10T02:20:14.712Z,0.00
2018-04-10T02:21:14.804Z,0.00
2018-04-10T02:22:14.900Z,0.00
2018-04-10T02:23:14.982Z,0.00
2018-04-10T02:24:15.067Z,0.00
2018-04-10T02:25:15.157Z,0.00
2018-04-10T02:26:15.250Z,0.00
2018-04-10T02:27:15.347Z,0.00
2018-04-10T02:28:15.439Z,0.00
2018-04-10T02:29:15.535Z,0.00
2018-04-10T02:30:15.631Z,0.00
2018-04-10T02:31:15.732Z,0.00
2018-04-10T02:32:15.823Z,0.00
2018-04-10T02:33:15.916Z,0.00
2018-04-10T02:34:16.010Z,0.00
2018-04-10T02:35:16.106Z,0.00
2018-04-10T02:36:16.203Z,0.00
2018-04-10T02:37:16.293Z,0.00
2018-04-10T02:38:16.385Z,0.00
2018-04-10T02:39:16.478Z,0.00
2018-04-10T02:40:16.574Z,0.00
2018-04-10T02:41:16.667Z,0.00
2018-04-10T02:42:16.763Z,0.00
2018-04-10T02:43:16.873Z,0.00
2018-04-10T02:44:16.965Z,0.00
2018-04-10T02:45:17.060Z,0.00
2018-04-10T02:46:17.154Z,0.00
2018-04-10T02:47:17.250Z,0.00
2018-04-10T02:48:17.336Z,0.00
2018-04-10T02:49:17.433Z,0.00
2018-04-10T02:50:17.526Z,0.00
2018-04-10T02:51:17.622Z,0.00
2018-04-10T02:52:17.711Z,0.00
2018-04-10T02:53:17.801Z,0.00
2018-04-10T02:54:17.892Z,0.00
2018-04-10T02:55:17.986Z,0.00
2018-04-10T02:56:18.089Z,0.00
2018-04-10T02:57:18.183Z,0.00
2018-04-10T02:58:18.276Z,0.00
2018-04-10T02:59:18.370Z,0.00
2018-04-10T03:00:18.464Z,0.00
2018-04-10T03:01:18.556Z,0.00
2018-04-10T03:02:18.653Z,0.00
2018-04-10T03:03:18.745Z,0.00
2018-04-10T03:04:18.838Z,0.00
2018-04-10T03:05:18.931Z,0.00
2018-04-10T03:06:19.031Z,0.00
2018-04-10T03:07:19.124Z,0.00
2018-04-10T03:08:19.219Z,0.00
2018-04-10T03:09:19.315Z,0.00
2018-04-10T03:10:19.407Z,0.00
2018-04-10T03:11:19.501Z,0.00
2018-04-10T03:12:19.603Z,0.00
2018-04-10T03:13:19.693Z,0.00
2018-04-10T03:14:19.784Z,0.00
2018-04-10T03:15:19.879Z,0.00
2018-04-10T03:16:19.976Z,0.00
2018-04-10T03:17:20.067Z,0.00
2018-04-10T03:18:20.163Z,0.00
2018-04-10T03:19:20.260Z,0.00
2018-04-10T03:20:20.353Z,0.00
2018-04-10T03:21:20.448Z,0.00
2018-04-10T03:22:20.544Z,0.00
2018-04-10T03:23:20.638Z,0.00
2018-04-10T03:24:20.728Z,0.00
2018-04-10T03:25:20.822Z,0.00
2018-04-10T03:26:20.919Z,0.00
2018-04-10T03:27:21.014Z,0.00
2018-04-10T03:28:21.106Z,0.00
2018-04-10T03:29:21.204Z,0.00
2018-04-10T03:30:21.296Z,0.00
2018-04-10T03:31:21.390Z,0.00
2018-04-10T03:32:21.487Z,0.00
2018-04-10T03:33:21.581Z,0.00
2018-04-10T03:34:21.676Z,0.00
2018-04-10T03:35:21.774Z,0.00
2018-04-10T03:36:21.850Z,0.00
2018-04-10T03:37:21.959Z,0.00
2018-04-10T03:38:22.602Z,0.00
2018-04-10T03:39:22.202Z,0.00
2018-04-10T03:40:22.338Z,0.00
2018-04-10T03:41:22.421Z,0.00
2018-04-10T03:42:22.543Z,0.00
2018-04-10T03:43:22.670Z,0.00
2018-04-10T03:44:22.775Z,0.00
2018-04-10T03:45:22.819Z,0.00
2018-04-10T03:46:22.935Z,0.00
2018-04-10T03:47:23.034Z,0.00
2018-04-10T03:48:23.146Z,0.00
2018-04-10T03:49:23.285Z,0.00
2018-04-10T03:50:23.405Z,0.00
2018-04-10T03:51:23.500Z,0.00
2018-04-10T03:52:23.637Z,0.00
2018-04-10T03:53:23.808Z,0.00
2018-04-10T03:54:23.764Z,0.00
2018-04-10T03:55:23.881Z,0.00
2018-04-10T03:56:24.013Z,0.00
2018-04-10T03:57:24.125Z,0.00
2018-04-10T03:58:24.243Z,0.00
2018-04-10T03:59:24.377Z,0.00
2018-04-10T04:00:24.460Z,0.00
2018-04-10T04:01:24.545Z,0.00
2018-04-10T04:02:24.658Z,0.00
2018-04-10T04:03:24.810Z,4.00
2018-04-10T04:04:24.889Z,4.00
2018-04-10T04:05:25.002Z,4.00
2018-04-10T04:06:25.087Z,4.00
2018-04-10T04:07:25.180Z,4.00
2018-04-10T04:08:25.273Z,4.00
2018-04-10T04:09:25.411Z,4.00
2018-04-10T04:10:25.523Z,4.00
2018-04-10T04:11:25.607Z,4.00
2018-04-10T04:12:25.720Z,4.00
2018-04-10T04:13:25.801Z,8.00
2018-04-10T04:14:25.931Z,4.00
2018-04-10T04:15:26.035Z,4.00
2018-04-10T04:16:26.114Z,8.00
2018-04-10T04:17:26.218Z,8.00
2018-04-10T04:18:26.304Z,8.00
2018-04-10T04:19:26.434Z,8.00
2018-04-10T04:20:26.539Z,12.00
2018-04-10T04:21:26.639Z,16.00
2018-04-10T04:22:26.758Z,16.00
2018-04-10T04:23:26.890Z,20.00
2018-04-10T04:24:26.972Z,28.00
2018-04-10T04:25:27.068Z,32.00
2018-04-10T04:26:27.160Z,36.00
2018-04-10T04:27:27.255Z,36.00
2018-04-10T04:28:27.348Z,44.00
2018-04-10T04:29:27.439Z,52.00
2018-04-10T04:30:27.548Z,60.00
2018-04-10T04:31:27.657Z,68.00
2018-04-10T04:32:27.761Z,76.00
2018-04-10T04:33:27.869Z,88.00
2018-04-10T04:34:27.940Z,96.00
2018-04-10T04:35:28.024Z,108.00
2018-04-10T04:36:28.143Z,120.00
2018-04-10T04:37:28.226Z,132.00
2018-04-10T04:38:28.321Z,148.00
2018-04-10T04:39:28.399Z,160.00
2018-04-10T04:40:28.595Z,176.00
2018-04-10T04:41:28.691Z,192.00
2018-04-10T04:42:28.780Z,212.00
2018-04-10T04:43:28.871Z,232.00
2018-04-10T04:44:28.956Z,256.00
2018-04-10T04:45:29.040Z,280.00
2018-04-10T04:46:29.137Z,308.00
2018-04-10T04:47:29.236Z,332.00
2018-04-10T04:48:29.326Z,364.00
2018-04-10T04:49:29.431Z,392.00
2018-04-10T04:50:29.520Z,420.00
2018-04-10T04:51:29.659Z,456.00
2018-04-10T04:52:29.756Z,488.00
2018-04-10T04:53:29.861Z,524.00
2018-04-10T04:54:29.973Z,560.00
2018-04-10T04:55:30.087Z,616.00
2018-04-10T04:56:30.197Z,632.00
2018-04-10T04:57:30.289Z,668.00
2018-04-10T04:58:30.371Z,708.00
2018-04-10T04:59:30.472Z,740.00
2018-04-10T05:00:30.550Z,780.00
2018-04-10T05:01:30.634Z,820.00
2018-04-10T05:02:30.715Z,856.00
2018-04-10T05:03:30.792Z,896.00
2018-04-10T05:04:30.873Z,928.00
2018-04-10T05:05:31.023Z,968.00
2018-04-10T05:06:31.136Z,1008.00
2018-04-10T05:07:31.273Z,1048.00
2018-04-10T05:08:31.351Z,1084.00
2018-04-10T05:09:31.443Z,1128.00
2018-04-10T05:10:31.538Z,1168.00
2018-04-10T05:11:31.647Z,1208.00
2018-04-10T05:12:31.742Z,1248.00
2018-04-10T05:13:31.856Z,1284.00
2018-04-10T05:14:31.962Z,1320.00
2018-04-10T05:15:32.070Z,1360.00
2018-04-10T05:16:32.176Z,1400.00
2018-04-10T05:17:32.229Z,1440.00
2018-04-10T05:18:32.316Z,1480.00
2018-04-10T05:19:32.406Z,1528.00
2018-04-10T05:20:32.505Z,1568.00
2018-04-10T05:21:32.598Z,1616.00
2018-04-10T05:22:32.695Z,1660.00
2018-04-10T05:23:32.776Z,1708.00
2018-04-10T05:24:32.910Z,1756.00
2018-04-10T05:25:33.006Z,1796.00
2018-04-10T05:26:33.111Z,1832.00
2018-04-10T05:27:33.231Z,1880.00
2018-04-10T05:28:33.326Z,1920.00
2018-04-10T05:29:33.560Z,1988.00
2018-04-10T05:30:33.546Z,2012.00
2018-04-10T05:31:33.638Z,2064.00
2018-04-10T05:32:33.728Z,2116.00
2018-04-10T05:33:33.823Z,2156.00
2018-04-10T05:34:33.913Z,2224.00
2018-04-10T05:35:34.026Z,2276.00
2018-04-10T05:36:34.117Z,2348.00
2018-04-10T05:37:34.208Z,2416.00
2018-04-10T05:38:34.303Z,2496.00
2018-04-10T05:39:34.399Z,2572.00
2018-04-10T05:40:36.429Z,2672.00
2018-04-10T05:41:34.652Z,2768.00
2018-04-10T05:42:34.746Z,2832.00
2018-04-10T05:43:35.061Z,2920.00
2018-04-10T05:44:34.980Z,3024.00
2018-04-10T05:45:35.078Z,3112.00
2018-04-10T05:46:35.198Z,3196.00
2018-04-10T05:47:35.289Z,3280.00
2018-04-10T05:48:35.388Z,3352.00
2018-04-10T05:49:35.485Z,3420.00
2018-04-10T05:50:35.561Z,3504.00
2018-04-10T05:51:35.653Z,3556.00
2018-04-10T05:52:35.732Z,3592.00
2018-04-10T05:53:35.836Z,3660.00
2018-04-10T05:54:35.931Z,3704.00
2018-04-10T05:55:36.130Z,3772.00
2018-04-10T05:56:36.094Z,3832.00
2018-04-10T05:57:36.189Z,3892.00
2018-04-10T05:58:36.269Z,4016.00
2018-04-10T05:59:36.358Z,4040.00
2018-04-10T06:00:36.462Z,4076.00
2018-04-10T06:01:36.554Z,4152.00
2018-04-10T06:02:36.645Z,4248.00
2018-04-10T06:03:36.745Z,4364.00
2018-04-10T06:04:36.844Z,4424.00
2018-04-10T06:05:36.941Z,4488.00
2018-04-10T06:06:37.029Z,4568.00
2018-04-10T06:07:37.130Z,4628.00
2018-04-10T06:08:37.229Z,4688.00
2018-04-10T06:09:37.325Z,4764.00
2018-04-10T06:10:37.422Z,4844.00
2018-04-10T06:11:37.516Z,5004.00
2018-04-10T06:12:37.608Z,5216.00
2018-04-10T06:13:37.705Z,5600.00
2018-04-10T06:14:37.801Z,6052.00
2018-04-10T06:15:37.897Z,6284.00
2018-04-10T06:16:37.993Z,9036.00
2018-04-10T06:17:38.090Z,12992.00
2018-04-10T06:18:38.188Z,13408.00
2018-04-10T06:19:38.278Z,14432.00
2018-04-10T06:20:38.378Z,16192.00
2018-04-10T06:21:38.474Z,17664.00
2018-04-10T06:22:38.567Z,18144.00
2018-04-10T06:23:38.668Z,17920.00
2018-04-10T06:24:38.760Z,17920.00
2018-04-10T06:25:38.856Z,18368.00
2018-04-10T06:26:38.949Z,18176.00
2018-04-10T06:27:39.062Z,16960.00
2018-04-10T06:28:39.130Z,15648.00
2018-04-10T06:29:39.225Z,14976.00
2018-04-10T06:30:39.319Z,15648.00
2018-04-10T06:31:39.418Z,16416.00
2018-04-10T06:32:39.517Z,16096.00
2018-04-10T06:33:39.615Z,14720.00
2018-04-10T06:34:39.714Z,13504.00
2018-04-10T06:35:39.811Z,14496.00
2018-04-10T06:36:39.906Z,16512.00
2018-04-10T06:37:40.010Z,17696.00
2018-04-10T06:38:40.128Z,17088.00
2018-04-10T06:39:40.227Z,15648.00
2018-04-10T06:40:40.320Z,14944.00
2018-04-10T06:41:40.417Z,15200.00
2018-04-10T06:42:40.518Z,15520.00
2018-04-10T06:43:40.618Z,14912.00
2018-04-10T06:44:40.718Z,13248.00
2018-04-10T06:45:40.815Z,12320.00
2018-04-10T06:46:40.901Z,12224.00
2018-04-10T06:47:41.024Z,12480.00
2018-04-10T06:48:41.097Z,12416.00
2018-04-10T06:49:41.196Z,11960.00
2018-04-10T06:50:41.298Z,12244.00
2018-04-10T06:51:41.413Z,12800.00
2018-04-10T06:52:41.506Z,13036.00
2018-04-10T06:53:41.608Z,12988.00
2018-04-10T06:54:41.708Z,12968.00
2018-04-10T06:55:41.803Z,13308.00
2018-04-10T06:56:41.904Z,13256.00
2018-04-10T06:57:42.005Z,12792.00
2018-04-10T06:58:42.105Z,12372.00
2018-04-10T06:59:42.203Z,11996.00
2018-04-10T07:00:42.305Z,11676.00
2018-04-10T07:01:42.427Z,11872.00
2018-04-10T07:02:42.512Z,12016.00
2018-04-10T07:03:42.616Z,12008.00
2018-04-10T07:04:42.738Z,11728.00
2018-04-10T07:05:42.816Z,11252.00
2018-04-10T07:06:42.916Z,10992.00
2018-04-10T07:07:43.018Z,10544.00
2018-04-10T07:08:43.149Z,9768.00
2018-04-10T07:09:43.213Z,9332.00
2018-04-10T07:10:43.335Z,9288.00
2018-04-10T07:11:43.418Z,9692.00
2018-04-10T07:12:43.520Z,9680.00
2018-04-10T07:13:43.625Z,8992.00
2018-04-10T07:14:43.722Z,9264.00
2018-04-10T07:15:43.824Z,9792.00
2018-04-10T07:16:43.930Z,9292.00
2018-04-10T07:17:44.027Z,8736.00
2018-04-10T07:18:44.130Z,8772.00
2018-04-10T07:19:44.244Z,8736.00
2018-04-10T07:20:44.328Z,8484.00
2018-04-10T07:21:44.430Z,8396.00
2018-04-10T07:22:44.528Z,8504.00
2018-04-10T07:23:44.629Z,8088.00
2018-04-10T07:24:44.719Z,7916.00
2018-04-10T07:25:44.858Z,8300.00
2018-04-10T07:26:44.944Z,7460.00
2018-04-10T07:27:45.073Z,6304.00
2018-04-10T07:28:45.147Z,5384.00
2018-04-10T07:29:45.247Z,4688.00
2018-04-10T07:30:45.347Z,4660.00
2018-04-10T07:31:45.450Z,4684.00
2018-04-10T07:32:45.542Z,4724.00
2018-04-10T07:33:45.644Z,4684.00
2018-04-10T07:34:45.741Z,4692.00
2018-04-10T07:35:45.838Z,4688.00
2018-04-10T07:36:45.941Z,4712.00
2018-04-10T07:37:46.041Z,4720.00
2018-04-10T07:38:46.126Z,4736.00
2018-04-10T07:39:46.232Z,4736.00
2018-04-10T07:40:46.336Z,4736.00
2018-04-10T07:41:46.435Z,4740.00
2018-04-10T07:42:46.533Z,4748.00
2018-04-10T07:43:46.635Z,4716.00
2018-04-10T07:44:46.732Z,4760.00
2018-04-10T07:45:46.832Z,4776.00
2018-04-10T07:46:46.934Z,4772.00
2018-04-10T07:47:47.039Z,4788.00
2018-04-10T07:48:47.140Z,4796.00
2018-04-10T07:49:47.242Z,4808.00
2018-04-10T07:50:47.365Z,4820.00
2018-04-10T07:51:47.443Z,4816.00
2018-04-10T07:52:47.535Z,4808.00
2018-04-10T07:53:47.643Z,4836.00
2018-04-10T07:54:47.743Z,4856.00
2018-04-10T07:55:47.845Z,4860.00
2018-04-10T07:56:47.973Z,4836.00
2018-04-10T07:57:48.092Z,4920.00
2018-04-10T07:58:48.188Z,4900.00
2018-04-10T07:59:48.294Z,4908.00
2018-04-10T08:00:48.468Z,4916.00
2018-04-10T08:01:48.502Z,4920.00
2018-04-10T08:02:48.605Z,4928.00
2018-04-10T08:03:48.706Z,4932.00
2018-04-10T08:04:48.855Z,4944.00
2018-04-10T08:05:48.926Z,4984.00
2018-04-10T08:06:49.031Z,4964.00
2018-04-10T08:07:49.122Z,4976.00
2018-04-10T08:08:49.222Z,4984.00
2018-04-10T08:09:49.315Z,4984.00
2018-04-10T08:10:49.402Z,5008.00
2018-04-10T08:11:49.521Z,5036.00
2018-04-10T08:12:49.627Z,4984.00
2018-04-10T08:13:49.727Z,5040.00
2018-04-10T08:14:49.871Z,5112.00
2018-04-10T08:15:49.955Z,5068.00
2018-04-10T08:16:50.047Z,5076.00
2018-04-10T08:17:50.141Z,5092.00
2018-04-10T08:18:50.272Z,5136.00
2018-04-10T08:19:50.365Z,5096.00
2018-04-10T08:20:50.462Z,5076.00
2018-04-10T08:21:50.593Z,5116.00
2018-04-10T08:22:50.755Z,5104.00
2018-04-10T08:23:50.735Z,5144.00
2018-04-10T08:24:50.834Z,5164.00
2018-04-10T08:25:50.973Z,5180.00
2018-04-10T08:26:51.069Z,5180.00
2018-04-10T08:27:51.165Z,5212.00
2018-04-10T08:28:51.267Z,5192.00
2018-04-10T08:29:51.361Z,5200.00
2018-04-10T08:30:51.455Z,5220.00
2018-04-10T08:31:51.554Z,5144.00
2018-04-10T08:32:51.651Z,5224.00
2018-04-10T08:33:51.752Z,5352.00
2018-04-10T08:34:51.860Z,5340.00
2018-04-10T08:35:51.976Z,5272.00
2018-04-10T08:36:52.746Z,5276.00
2018-04-10T08:37:52.270Z,5260.00
2018-04-10T08:38:52.355Z,5312.00
2018-04-10T08:39:52.480Z,5288.00
2018-04-10T08:40:52.621Z,5268.00
2018-04-10T08:41:52.738Z,5328.00
2018-04-10T08:42:52.851Z,5312.00
2018-04-10T08:43:53.011Z,5296.00
2018-04-10T08:44:53.033Z,5372.00
2018-04-10T08:45:53.382Z,5344.00
2018-04-10T08:46:53.258Z,5348.00
2018-04-10T08:47:53.341Z,5364.00
2018-04-10T08:48:53.454Z,5368.00
2018-04-10T08:49:53.547Z,5364.00
2018-04-10T08:50:53.642Z,5356.00
2018-04-10T08:51:53.732Z,5648.00
2018-04-10T08:52:53.812Z,5388.00
2018-04-10T08:53:53.903Z,5404.00
2018-04-10T08:54:54.011Z,5420.00
2018-04-10T08:55:54.103Z,5564.00
2018-04-10T08:56:54.377Z,5440.00
2018-04-10T08:57:54.268Z,5472.00
2018-04-10T08:58:54.623Z,5480.00
2018-04-10T08:59:54.434Z,5472.00
2018-04-10T09:00:55.023Z,5488.00
2018-04-10T09:01:54.850Z,5500.00
2018-04-10T09:02:54.811Z,5544.00
2018-04-10T09:03:54.778Z,5560.00
2018-04-10T09:04:55.312Z,5564.00
2018-04-10T09:05:55.042Z,5588.00
2018-04-10T09:06:55.147Z,5600.00
2018-04-10T09:07:55.258Z,5440.00
2018-04-10T09:08:55.360Z,5652.00
2018-04-10T09:09:55.457Z,5624.00
2018-04-10T09:10:55.545Z,5672.00
2018-04-10T09:11:55.645Z,5664.00
2018-04-10T09:12:55.784Z,5664.00
2018-04-10T09:13:55.887Z,5648.00
2018-04-10T09:14:55.980Z,5656.00
2018-04-10T09:15:56.153Z,5656.00
2018-04-10T09:16:56.760Z,5676.00
2018-04-10T09:17:56.278Z,5692.00
2018-04-10T09:18:56.443Z,5700.00
2018-04-10T09:19:56.534Z,5708.00
2018-04-10T09:20:56.539Z,5684.00
2018-04-10T09:21:56.786Z,5728.00
2018-04-10T09:22:57.038Z,5788.00
2018-04-10T09:23:56.820Z,5748.00
2018-04-10T09:24:56.929Z,5764.00
2018-04-10T09:25:57.021Z,5776.00
2018-04-10T09:26:57.206Z,5804.00
2018-04-10T09:27:57.196Z,5784.00
2018-04-10T09:28:57.320Z,5780.00
2018-04-10T09:29:57.422Z,5840.00
2018-04-10T09:30:57.663Z,5800.00
2018-04-10T09:31:57.590Z,5816.00
2018-04-10T09:32:57.691Z,5808.00
2018-04-10T09:33:57.798Z,5824.00
2018-04-10T09:34:57.935Z,5828.00
2018-04-10T09:35:58.054Z,5812.00
2018-04-10T09:36:58.122Z,5820.00
2018-04-10T09:37:58.234Z,5828.00
2018-04-10T09:38:58.320Z,5860.00
2018-04-10T09:39:58.410Z,5832.00
2018-04-10T09:40:58.501Z,5828.00
2018-04-10T09:41:58.606Z,5852.00
2018-04-10T09:42:58.700Z,5868.00
2018-04-10T09:43:58.805Z,5828.00
2018-04-10T09:44:58.912Z,5884.00
2018-04-10T09:45:58.994Z,5828.00
2018-04-10T09:46:59.089Z,5892.00
2018-04-10T09:47:59.225Z,5888.00
2018-04-10T09:48:59.323Z,5984.00
2018-04-10T09:49:59.424Z,5892.00
2018-04-10T09:50:59.539Z,5916.00
2018-04-10T09:51:59.659Z,5904.00
2018-04-10T09:52:59.788Z,5892.00
2018-04-10T09:53:59.905Z,6036.00
2018-04-10T09:55:00.007Z,5896.00
2018-04-10T09:56:00.133Z,5884.00
2018-04-10T09:57:00.219Z,6584.00
2018-04-10T09:58:00.324Z,5856.00
2018-04-10T09:59:00.419Z,6008.00
2018-04-10T10:00:00.533Z,5868.00
2018-04-10T10:01:00.697Z,5928.00
2018-04-10T10:02:00.674Z,5432.00
2018-04-10T10:03:00.781Z,5896.00
2018-04-10T10:04:00.907Z,5844.00
2018-04-10T10:05:01.089Z,5836.00
2018-04-10T10:06:01.071Z,5824.00
2018-04-10T10:07:01.169Z,6376.00
2018-04-10T10:08:01.274Z,5788.00
2018-04-10T10:09:01.373Z,5820.00
2018-04-10T10:10:01.564Z,5804.00
2018-04-10T10:11:01.563Z,5816.00
2018-04-10T10:12:01.675Z,5816.00
2018-04-10T10:13:01.768Z,5688.00
2018-04-10T10:14:01.885Z,5848.00
2018-04-10T10:15:02.061Z,5832.00
2018-04-10T10:16:02.166Z,5816.00
2018-04-10T10:17:02.290Z,5784.00
2018-04-10T10:18:02.397Z,5768.00
2018-04-10T10:19:02.484Z,5772.00
2018-04-10T10:20:02.722Z,5704.00
2018-04-10T10:21:02.698Z,5764.00
2018-04-10T10:22:02.793Z,5724.00
2018-04-10T10:23:02.886Z,5772.00
2018-04-10T10:24:03.028Z,5792.00
2018-04-10T10:25:03.130Z,5784.00
2018-04-10T10:26:03.291Z,5756.00
2018-04-10T10:27:03.327Z,6288.00
2018-04-10T10:28:03.438Z,5732.00
2018-04-10T10:29:03.548Z,5752.00
2018-04-10T10:30:03.649Z,5848.00
2018-04-10T10:31:03.762Z,5764.00
2018-04-10T10:32:03.885Z,5756.00
2018-04-10T10:33:03.933Z,5848.00
2018-04-10T10:34:04.039Z,6024.00
2018-04-10T10:35:04.144Z,5740.00
2018-04-10T10:36:04.244Z,5720.00
2018-04-10T10:37:04.336Z,5876.00
2018-04-10T10:38:04.477Z,5752.00
2018-04-10T10:39:04.624Z,5860.00
2018-04-10T10:40:04.686Z,5752.00
2018-04-10T10:41:04.801Z,5984.00
2018-04-10T10:42:05.041Z,5732.00
2018-04-10T10:43:05.041Z,5740.00
2018-04-10T10:44:05.129Z,5752.00
2018-04-10T10:45:05.217Z,5732.00
2018-04-10T10:46:05.328Z,5736.00
2018-04-10T10:47:05.459Z,5736.00
2018-04-10T10:48:05.542Z,5980.00
2018-04-10T10:49:05.646Z,5688.00
2018-04-10T10:50:05.749Z,5728.00
2018-04-10T10:51:05.853Z,5676.00
2018-04-10T10:52:05.975Z,5728.00
2018-04-10T10:53:06.088Z,5736.00
2018-04-10T10:54:06.203Z,5692.00
2018-04-10T10:55:06.302Z,5704.00
2018-04-10T10:56:06.397Z,5724.00
2018-04-10T10:57:06.498Z,5712.00
2018-04-10T10:58:06.668Z,5704.00
2018-04-10T10:59:06.757Z,5696.00
2018-04-10T11:00:06.860Z,5936.00
2018-04-10T11:01:06.960Z,5708.00
2018-04-10T11:02:07.056Z,5732.00
2018-04-10T11:03:07.158Z,5756.00
2018-04-10T11:04:07.329Z,5748.00
2018-04-10T11:05:07.326Z,5792.00
2018-04-10T11:06:07.429Z,5748.00
2018-04-10T11:07:07.531Z,5764.00
2018-04-10T11:08:07.631Z,6212.00
2018-04-10T11:09:07.815Z,6024.00
2018-04-10T11:10:07.826Z,5772.00
2018-04-10T11:11:07.917Z,5764.00
2018-04-10T11:12:08.070Z,5780.00
2018-04-10T11:13:08.170Z,5764.00
2018-04-10T11:14:08.280Z,5752.00
2018-04-10T11:15:08.379Z,5780.00
2018-04-10T11:16:08.483Z,6876.00
2018-04-10T11:17:08.588Z,5792.00
2018-04-10T11:18:08.691Z,5788.00
2018-04-10T11:19:08.789Z,5800.00
2018-04-10T11:20:08.910Z,5796.00
2018-04-10T11:21:08.994Z,5764.00
2018-04-10T11:22:09.098Z,5752.00
2018-04-10T11:23:09.196Z,5792.00
2018-04-10T11:24:09.307Z,5836.00
2018-04-10T11:25:09.415Z,5836.00
2018-04-10T11:26:09.521Z,5844.00
2018-04-10T11:27:09.618Z,5792.00
2018-04-10T11:28:09.724Z,5836.00
2018-04-10T11:29:09.831Z,5840.00
2018-04-10T11:30:09.932Z,5824.00
2018-04-10T11:31:10.044Z,7108.00
2018-04-10T11:32:10.146Z,6168.00
2018-04-10T11:33:10.249Z,5960.00
2018-04-10T11:34:10.350Z,5856.00
2018-04-10T11:35:10.459Z,5848.00
2018-04-10T11:36:10.568Z,5880.00
2018-04-10T11:37:10.658Z,5880.00
2018-04-10T11:38:10.761Z,5912.00
2018-04-10T11:39:10.907Z,5932.00
2018-04-10T11:40:10.969Z,5964.00
2018-04-10T11:41:11.067Z,6012.00
2018-04-10T11:42:11.180Z,6052.00
2018-04-10T11:43:11.274Z,6040.00
2018-04-10T11:44:11.371Z,6132.00
2018-04-10T11:45:11.497Z,6072.00
2018-04-10T11:46:11.605Z,6144.00
2018-04-10T11:47:11.704Z,6176.00
2018-04-10T11:48:11.807Z,6224.00
2018-04-10T11:49:11.912Z,6248.00
2018-04-10T11:50:12.017Z,6220.00
2018-04-10T11:51:12.117Z,6176.00
2018-04-10T11:52:12.222Z,6108.00
2018-04-10T11:53:12.330Z,6120.00
2018-04-10T11:54:12.439Z,6148.00
2018-04-10T11:55:12.523Z,6204.00
2018-04-10T11:56:12.623Z,5516.00
2018-04-10T11:57:12.722Z,5472.00
2018-04-10T11:58:12.824Z,6364.00
2018-04-10T11:59:12.926Z,6024.00
2018-04-10T12:00:13.030Z,6372.00
2018-04-10T12:01:13.136Z,6356.00
2018-04-10T12:02:13.239Z,6216.00
2018-04-10T12:03:13.341Z,6128.00
2018-04-10T12:04:13.446Z,6360.00
2018-04-10T12:05:13.549Z,6156.00
2018-04-10T12:06:13.639Z,6020.00
2018-04-10T12:07:13.748Z,6048.00
2018-04-10T12:08:13.889Z,6520.00
2018-04-10T12:09:13.943Z,5980.00
2018-04-10T12:10:14.044Z,5960.00
2018-04-10T12:11:14.147Z,5980.00
2018-04-10T12:12:14.254Z,5964.00
2018-04-10T12:13:14.355Z,6012.00
2018-04-10T12:14:14.447Z,6032.00
2018-04-10T12:15:14.556Z,6052.00
2018-04-10T12:16:14.659Z,6060.00
2018-04-10T12:17:14.761Z,6056.00
2018-04-10T12:18:14.864Z,6044.00
2018-04-10T12:19:14.973Z,6080.00
2018-04-10T12:20:15.075Z,6072.00
2018-04-10T12:21:15.168Z,6100.00
2018-04-10T12:22:15.291Z,6104.00
2018-04-10T12:23:15.394Z,6120.00
2018-04-10T12:24:15.517Z,6060.00
2018-04-10T12:25:15.601Z,6108.00
2018-04-10T12:26:15.700Z,6136.00
2018-04-10T12:27:15.803Z,6148.00
2018-04-10T12:28:15.905Z,6132.00
2018-04-10T12:29:16.009Z,6096.00
2018-04-10T12:30:16.115Z,6100.00